sensor_id;sensor_type;location;lat;lon;timestamp;temperature;humidity
71173;DHT22;58875;51.996;4.504;2023-01-15T00:01:00;8.53;71.35
71173;DHT22;58875;51.996;4.504;2023-01-15T00:03:26;8.54;71.74
71173;DHT22;58875;51.996;4.504;2023-01-15T00:05:52;8.55;71.79
71173;DHT22;58875;51.996;4.504;2023-01-15T00:08:17;8.60;71.23
71173;DHT22;58875;51.996;4.504;2023-01-15T00:10:43;8.57;70.72
71173;DHT22;58875;51.996;4.504;2023-01-15T00:13:09;8.63;70.77
71173;DHT22;58875;51.996;4.504;2023-01-15T00:15:35;8.63;70.46
71173;DHT22;58875;51.996;4.504;2023-01-15T00:18:01;8.61;70.45
71173;DHT22;58875;51.996;4.504;2023-01-15T00:20:26;8.63;70.58
71173;DHT22;58875;51.996;4.504;2023-01-15T00:22:52;8.63;70.31
71173;DHT22;58875;51.996;4.504;2023-01-15T00:25:18;8.55;70.44
71173;DHT22;58875;51.996;4.504;2023-01-15T00:28:02;8.53;70.80
71173;DHT22;58875;51.996;4.504;2023-01-15T00:30:28;8.60;70.42
71173;DHT22;58875;51.996;4.504;2023-01-15T00:32:53;8.53;70.73
71173;DHT22;58875;51.996;4.504;2023-01-15T00:35:22;8.50;70.25
71173;DHT22;58875;51.996;4.504;2023-01-15T00:37:48;8.48;69.93
71173;DHT22;58875;51.996;4.504;2023-01-15T00:40:15;8.41;69.85
71173;DHT22;58875;51.996;4.504;2023-01-15T00:42:41;8.44;69.51
71173;DHT22;58875;51.996;4.504;2023-01-15T00:45:09;8.43;69.59
71173;DHT22;58875;51.996;4.504;2023-01-15T00:47:40;8.40;69.09
71173;DHT22;58875;51.996;4.504;2023-01-15T00:50:09;8.48;68.94
71173;DHT22;58875;51.996;4.504;2023-01-15T00:52:35;8.41;68.94
71173;DHT22;58875;51.996;4.504;2023-01-15T00:55:01;8.38;69.12
71173;DHT22;58875;51.996;4.504;2023-01-15T00:57:27;8.38;68.89
71173;DHT22;58875;51.996;4.504;2023-01-15T00:59:52;8.41;69.15
71173;DHT22;58875;51.996;4.504;2023-01-15T01:02:18;8.43;69.32
71173;DHT22;58875;51.996;4.504;2023-01-15T01:04:44;8.41;69.13
71173;DHT22;58875;51.996;4.504;2023-01-15T01:07:10;8.37;69.18
71173;DHT22;58875;51.996;4.504;2023-01-15T01:09:35;8.37;69.47
71173;DHT22;58875;51.996;4.504;2023-01-15T01:12:01;8.37;69.27
71173;DHT22;58875;51.996;4.504;2023-01-15T01:14:26;8.38;69.49
71173;DHT22;58875;51.996;4.504;2023-01-15T01:16:52;8.40;69.18
71173;DHT22;58875;51.996;4.504;2023-01-15T01:19:21;8.41;69.35
71173;DHT22;58875;51.996;4.504;2023-01-15T01:21:48;8.37;69.67
71173;DHT22;58875;51.996;4.504;2023-01-15T01:24:16;8.34;69.26
71173;DHT22;58875;51.996;4.504;2023-01-15T01:26:42;8.40;69.29
71173;DHT22;58875;51.996;4.504;2023-01-15T01:29:14;8.37;69.00
71173;DHT22;58875;51.996;4.504;2023-01-15T01:31:40;8.36;69.04
71173;DHT22;58875;51.996;4.504;2023-01-15T01:34:06;8.32;69.06
71173;DHT22;58875;51.996;4.504;2023-01-15T01:36:37;8.33;69.00
71173;DHT22;58875;51.996;4.504;2023-01-15T01:39:05;8.30;68.47
71173;DHT22;58875;51.996;4.504;2023-01-15T01:41:32;8.33;68.53
71173;DHT22;58875;51.996;4.504;2023-01-15T01:46:49;8.34;68.69
71173;DHT22;58875;51.996;4.504;2023-01-15T01:49:15;8.32;67.90
71173;DHT22;58875;51.996;4.504;2023-01-15T01:51:50;8.30;67.40
71173;DHT22;58875;51.996;4.504;2023-01-15T01:54:20;8.33;67.23
71173;DHT22;58875;51.996;4.504;2023-01-15T01:56:48;8.32;66.93
71173;DHT22;58875;51.996;4.504;2023-01-15T01:59:16;8.27;66.64
71173;DHT22;58875;51.996;4.504;2023-01-15T02:01:42;8.27;66.77
71173;DHT22;58875;51.996;4.504;2023-01-15T02:04:09;8.22;66.90
71173;DHT22;58875;51.996;4.504;2023-01-15T02:06:38;8.19;66.40
71173;DHT22;58875;51.996;4.504;2023-01-15T02:09:05;8.16;67.21
71173;DHT22;58875;51.996;4.504;2023-01-15T02:11:32;8.10;67.70
71173;DHT22;58875;51.996;4.504;2023-01-15T02:14:11;8.16;67.96
71173;DHT22;58875;51.996;4.504;2023-01-15T02:16:57;8.22;68.12
71173;DHT22;58875;51.996;4.504;2023-01-15T02:27:29;8.19;68.68
71173;DHT22;58875;51.996;4.504;2023-01-15T02:30:11;8.17;69.03
71173;DHT22;58875;51.996;4.504;2023-01-15T02:33:05;8.16;69.16
71173;DHT22;58875;51.996;4.504;2023-01-15T02:35:39;8.13;69.16
71173;DHT22;58875;51.996;4.504;2023-01-15T02:38:12;8.14;69.36
71173;DHT22;58875;51.996;4.504;2023-01-15T02:40:41;8.19;69.51
71173;DHT22;58875;51.996;4.504;2023-01-15T02:43:11;8.12;70.12
71173;DHT22;58875;51.996;4.504;2023-01-15T02:45:42;8.14;70.33
71173;DHT22;58875;51.996;4.504;2023-01-15T02:48:12;8.10;70.62
71173;DHT22;58875;51.996;4.504;2023-01-15T02:50:53;8.02;70.74
71173;DHT22;58875;51.996;4.504;2023-01-15T02:53:25;8.04;68.15
71173;DHT22;58875;51.996;4.504;2023-01-15T02:55:57;8.09;67.31
71173;DHT22;58875;51.996;4.504;2023-01-15T02:58:29;8.14;67.59
71173;DHT22;58875;51.996;4.504;2023-01-15T03:01:00;8.14;67.10
71173;DHT22;58875;51.996;4.504;2023-01-15T03:03:36;8.19;66.90
71173;DHT22;58875;51.996;4.504;2023-01-15T03:06:10;8.16;67.02
71173;DHT22;58875;51.996;4.504;2023-01-15T03:08:38;8.13;67.35
71173;DHT22;58875;51.996;4.504;2023-01-15T03:11:16;8.06;67.77
71173;DHT22;58875;51.996;4.504;2023-01-15T03:13:50;8.00;68.60
71173;DHT22;58875;51.996;4.504;2023-01-15T03:16:33;7.94;69.56
71173;DHT22;58875;51.996;4.504;2023-01-15T03:24:50;7.99;69.77
71173;DHT22;58875;51.996;4.504;2023-01-15T03:27:17;7.99;69.97
71173;DHT22;58875;51.996;4.504;2023-01-15T03:29:57;8.02;69.92
71173;DHT22;58875;51.996;4.504;2023-01-15T03:32:23;7.99;70.30
71173;DHT22;58875;51.996;4.504;2023-01-15T03:34:52;7.99;70.75
71173;DHT22;58875;51.996;4.504;2023-01-15T03:37:24;8.00;71.12
71173;DHT22;58875;51.996;4.504;2023-01-15T03:39:51;8.02;70.99
71173;DHT22;58875;51.996;4.504;2023-01-15T03:45:28;8.06;70.25
71173;DHT22;58875;51.996;4.504;2023-01-15T03:48:15;8.06;69.79
71173;DHT22;58875;51.996;4.504;2023-01-15T03:50:48;8.09;69.77
71173;DHT22;58875;51.996;4.504;2023-01-15T03:53:22;8.04;69.95
71173;DHT22;58875;51.996;4.504;2023-01-15T03:56:13;8.03;69.97
71173;DHT22;58875;51.996;4.504;2023-01-15T03:58:46;8.00;69.66
71173;DHT22;58875;51.996;4.504;2023-01-15T04:01:23;8.03;69.18
71173;DHT22;58875;51.996;4.504;2023-01-15T04:03:52;8.03;69.16
71173;DHT22;58875;51.996;4.504;2023-01-15T04:06:19;8.06;69.35
71173;DHT22;58875;51.996;4.504;2023-01-15T04:08:46;8.06;69.77
71173;DHT22;58875;51.996;4.504;2023-01-15T04:11:12;8.00;69.70
71173;DHT22;58875;51.996;4.504;2023-01-15T04:13:45;7.99;70.04
71173;DHT22;58875;51.996;4.504;2023-01-15T04:16:11;7.96;69.76
71173;DHT22;58875;51.996;4.504;2023-01-15T04:18:36;7.97;69.25
71173;DHT22;58875;51.996;4.504;2023-01-15T04:21:02;7.99;69.93
71173;DHT22;58875;51.996;4.504;2023-01-15T04:23:27;7.94;69.82
71173;DHT22;58875;51.996;4.504;2023-01-15T04:25:53;7.94;69.70
71173;DHT22;58875;51.996;4.504;2023-01-15T04:28:18;8.04;69.72
71173;DHT22;58875;51.996;4.504;2023-01-15T04:30:44;7.94;69.61
71173;DHT22;58875;51.996;4.504;2023-01-15T04:33:10;7.94;69.62
71173;DHT22;58875;51.996;4.504;2023-01-15T04:35:37;7.97;69.19
71173;DHT22;58875;51.996;4.504;2023-01-15T04:38:03;7.94;69.25
71173;DHT22;58875;51.996;4.504;2023-01-15T04:40:28;7.97;67.80
71173;DHT22;58875;51.996;4.504;2023-01-15T04:43:13;8.03;68.32
71173;DHT22;58875;51.996;4.504;2023-01-15T04:45:58;7.99;68.44
71173;DHT22;58875;51.996;4.504;2023-01-15T04:48:24;8.00;69.13
71173;DHT22;58875;51.996;4.504;2023-01-15T04:50:50;7.96;69.52
71173;DHT22;58875;51.996;4.504;2023-01-15T04:53:16;7.94;69.42
71173;DHT22;58875;51.996;4.504;2023-01-15T04:55:41;7.93;69.17
71173;DHT22;58875;51.996;4.504;2023-01-15T04:58:07;7.86;67.05
71173;DHT22;58875;51.996;4.504;2023-01-15T05:00:33;7.85;66.28
71173;DHT22;58875;51.996;4.504;2023-01-15T05:02:58;7.81;66.13
71173;DHT22;58875;51.996;4.504;2023-01-15T05:05:24;7.82;64.77
71173;DHT22;58875;51.996;4.504;2023-01-15T05:07:49;7.81;64.02
71173;DHT22;58875;51.996;4.504;2023-01-15T05:10:15;7.81;63.55
71173;DHT22;58875;51.996;4.504;2023-01-15T05:12:40;7.73;62.67
71173;DHT22;58875;51.996;4.504;2023-01-15T05:15:06;7.73;62.63
71173;DHT22;58875;51.996;4.504;2023-01-15T05:17:32;7.63;62.80
71173;DHT22;58875;51.996;4.504;2023-01-15T05:19:57;7.69;63.14
71173;DHT22;58875;51.996;4.504;2023-01-15T05:22:23;7.56;63.50
71173;DHT22;58875;51.996;4.504;2023-01-15T05:24:48;7.58;63.77
71173;DHT22;58875;51.996;4.504;2023-01-15T05:27:14;7.58;63.33
71173;DHT22;58875;51.996;4.504;2023-01-15T05:29:39;7.59;63.17
71173;DHT22;58875;51.996;4.504;2023-01-15T05:32:05;7.56;62.88
71173;DHT22;58875;51.996;4.504;2023-01-15T05:34:30;7.56;63.48
71173;DHT22;58875;51.996;4.504;2023-01-15T05:36:56;7.59;63.06
71173;DHT22;58875;51.996;4.504;2023-01-15T05:39:21;7.56;63.41
71173;DHT22;58875;51.996;4.504;2023-01-15T05:41:47;7.58;63.80
71173;DHT22;58875;51.996;4.504;2023-01-15T05:44:22;7.56;63.49
71173;DHT22;58875;51.996;4.504;2023-01-15T05:46:49;7.51;63.11
71173;DHT22;58875;51.996;4.504;2023-01-15T05:49:18;7.54;62.52
71173;DHT22;58875;51.996;4.504;2023-01-15T05:51:44;7.45;62.81
71173;DHT22;58875;51.996;4.504;2023-01-15T05:54:14;7.41;63.00
71173;DHT22;58875;51.996;4.504;2023-01-15T05:56:40;7.41;62.60
71173;DHT22;58875;51.996;4.504;2023-01-15T05:59:07;7.41;62.42
71173;DHT22;58875;51.996;4.504;2023-01-15T06:01:33;7.35;61.47
71173;DHT22;58875;51.996;4.504;2023-01-15T06:04:00;7.31;61.09
71173;DHT22;58875;51.996;4.504;2023-01-15T06:06:27;7.34;62.09
71173;DHT22;58875;51.996;4.504;2023-01-15T06:08:53;7.25;63.40
71173;DHT22;58875;51.996;4.504;2023-01-15T06:11:19;7.30;63.97
71173;DHT22;58875;51.996;4.504;2023-01-15T06:13:44;7.30;64.06
71173;DHT22;58875;51.996;4.504;2023-01-15T06:16:10;7.30;63.85
71173;DHT22;58875;51.996;4.504;2023-01-15T06:18:39;7.34;63.42
71173;DHT22;58875;51.996;4.504;2023-01-15T06:21:10;7.35;63.58
71173;DHT22;58875;51.996;4.504;2023-01-15T06:23:36;7.36;63.95
71173;DHT22;58875;51.996;4.504;2023-01-15T06:26:09;7.36;64.58
71173;DHT22;58875;51.996;4.504;2023-01-15T06:28:35;7.34;64.33
71173;DHT22;58875;51.996;4.504;2023-01-15T06:31:07;7.44;64.06
71173;DHT22;58875;51.996;4.504;2023-01-15T06:33:33;7.45;63.88
71173;DHT22;58875;51.996;4.504;2023-01-15T06:36:10;7.44;63.71
71173;DHT22;58875;51.996;4.504;2023-01-15T06:38:36;7.32;63.81
71173;DHT22;58875;51.996;4.504;2023-01-15T06:41:04;7.35;63.81
71173;DHT22;58875;51.996;4.504;2023-01-15T06:43:50;7.34;64.05
71173;DHT22;58875;51.996;4.504;2023-01-15T06:46:34;7.30;64.43
71173;DHT22;58875;51.996;4.504;2023-01-15T06:49:18;7.28;64.11
71173;DHT22;58875;51.996;4.504;2023-01-15T06:51:43;7.25;64.32
71173;DHT22;58875;51.996;4.504;2023-01-15T06:54:09;7.20;64.62
71173;DHT22;58875;51.996;4.504;2023-01-15T06:56:34;7.20;64.97
71173;DHT22;58875;51.996;4.504;2023-01-15T06:59:00;7.24;64.34
71173;DHT22;58875;51.996;4.504;2023-01-15T07:01:25;7.27;64.80
71173;DHT22;58875;51.996;4.504;2023-01-15T07:03:55;7.24;64.51
71173;DHT22;58875;51.996;4.504;2023-01-15T07:06:21;7.22;64.85
71173;DHT22;58875;51.996;4.504;2023-01-15T07:08:46;7.18;64.88
71173;DHT22;58875;51.996;4.504;2023-01-15T07:11:12;7.24;65.14
71173;DHT22;58875;51.996;4.504;2023-01-15T07:13:38;7.25;65.16
71173;DHT22;58875;51.996;4.504;2023-01-15T07:16:04;7.31;65.72
71173;DHT22;58875;51.996;4.504;2023-01-15T07:18:32;7.22;66.07
71173;DHT22;58875;51.996;4.504;2023-01-15T07:20:58;7.24;66.37
71173;DHT22;58875;51.996;4.504;2023-01-15T07:23:25;7.22;65.77
71173;DHT22;58875;51.996;4.504;2023-01-15T07:25:52;7.22;65.91
71173;DHT22;58875;51.996;4.504;2023-01-15T07:28:19;7.27;65.66
71173;DHT22;58875;51.996;4.504;2023-01-15T07:30:45;7.34;65.49
71173;DHT22;58875;51.996;4.504;2023-01-15T07:33:11;7.34;65.61
71173;DHT22;58875;51.996;4.504;2023-01-15T07:35:37;7.30;65.90
71173;DHT22;58875;51.996;4.504;2023-01-15T07:38:03;7.30;66.12
71173;DHT22;58875;51.996;4.504;2023-01-15T07:40:29;7.42;66.42
71173;DHT22;58875;51.996;4.504;2023-01-15T07:42:55;7.40;66.87
71173;DHT22;58875;51.996;4.504;2023-01-15T07:45:39;7.22;67.61
71173;DHT22;58875;51.996;4.504;2023-01-15T07:48:25;7.27;67.83
71173;DHT22;58875;51.996;4.504;2023-01-15T07:51:13;7.28;67.55
71173;DHT22;58875;51.996;4.504;2023-01-15T07:53:38;7.28;67.81
71173;DHT22;58875;51.996;4.504;2023-01-15T07:56:04;7.38;67.55
71173;DHT22;58875;51.996;4.504;2023-01-15T07:58:29;7.36;66.84
71173;DHT22;58875;51.996;4.504;2023-01-15T08:00:55;7.38;67.17
71173;DHT22;58875;51.996;4.504;2023-01-15T08:03:20;7.47;66.90
71173;DHT22;58875;51.996;4.504;2023-01-15T08:05:46;7.47;66.14
71173;DHT22;58875;51.996;4.504;2023-01-15T08:08:16;7.61;65.42
71173;DHT22;58875;51.996;4.504;2023-01-15T08:10:42;7.73;64.94
71173;DHT22;58875;51.996;4.504;2023-01-15T08:13:27;7.75;64.75
71173;DHT22;58875;51.996;4.504;2023-01-15T08:16:11;7.83;64.94
71173;DHT22;58875;51.996;4.504;2023-01-15T08:18:37;7.86;65.46
71173;DHT22;58875;51.996;4.504;2023-01-15T08:21:03;7.76;65.24
71173;DHT22;58875;51.996;4.504;2023-01-15T08:23:29;7.76;65.29
71173;DHT22;58875;51.996;4.504;2023-01-15T08:25:58;7.72;65.34
71173;DHT22;58875;51.996;4.504;2023-01-15T08:28:24;7.81;65.61
71173;DHT22;58875;51.996;4.504;2023-01-15T08:30:50;7.82;65.82
71173;DHT22;58875;51.996;4.504;2023-01-15T08:33:15;7.78;65.24
71173;DHT22;58875;51.996;4.504;2023-01-15T08:35:40;7.75;65.31
71173;DHT22;58875;51.996;4.504;2023-01-15T08:38:06;7.78;65.81
71173;DHT22;58875;51.996;4.504;2023-01-15T08:40:33;7.76;66.02
71173;DHT22;58875;51.996;4.504;2023-01-15T08:43:01;7.81;66.11
71173;DHT22;58875;51.996;4.504;2023-01-15T08:45:26;7.79;66.54
71173;DHT22;58875;51.996;4.504;2023-01-15T08:47:55;7.83;66.54
71173;DHT22;58875;51.996;4.504;2023-01-15T08:50:22;7.86;67.11
71173;DHT22;58875;51.996;4.504;2023-01-15T08:52:48;7.85;66.88
71173;DHT22;58875;51.996;4.504;2023-01-15T08:55:13;7.83;67.49
71173;DHT22;58875;51.996;4.504;2023-01-15T08:57:39;7.82;67.47
71173;DHT22;58875;51.996;4.504;2023-01-15T09:00:05;7.78;67.81
71173;DHT22;58875;51.996;4.504;2023-01-15T09:02:31;7.78;67.31
71173;DHT22;58875;51.996;4.504;2023-01-15T09:04:56;7.83;67.23
71173;DHT22;58875;51.996;4.504;2023-01-15T09:07:22;7.76;67.18
71173;DHT22;58875;51.996;4.504;2023-01-15T09:09:48;7.85;67.48
71173;DHT22;58875;51.996;4.504;2023-01-15T09:12:13;7.86;67.55
71173;DHT22;58875;51.996;4.504;2023-01-15T09:14:39;7.86;67.69
71173;DHT22;58875;51.996;4.504;2023-01-15T09:17:04;7.85;67.48
71173;DHT22;58875;51.996;4.504;2023-01-15T09:19:30;7.94;67.20
71173;DHT22;58875;51.996;4.504;2023-01-15T09:21:55;7.97;67.22
71173;DHT22;58875;51.996;4.504;2023-01-15T09:24:21;7.94;66.62
71173;DHT22;58875;51.996;4.504;2023-01-15T09:26:46;7.99;66.36
71173;DHT22;58875;51.996;4.504;2023-01-15T09:29:13;8.00;66.08
71173;DHT22;58875;51.996;4.504;2023-01-15T09:31:38;8.06;66.09
71173;DHT22;58875;51.996;4.504;2023-01-15T09:34:04;8.03;66.22
71173;DHT22;58875;51.996;4.504;2023-01-15T09:36:32;7.97;66.25
71173;DHT22;58875;51.996;4.504;2023-01-15T09:38:59;8.06;66.56
71173;DHT22;58875;51.996;4.504;2023-01-15T09:42:20;8.12;66.17
71173;DHT22;58875;51.996;4.504;2023-01-15T09:47:33;8.12;65.94
71173;DHT22;58875;51.996;4.504;2023-01-15T09:50:22;8.27;65.53
71173;DHT22;58875;51.996;4.504;2023-01-15T09:55:18;8.45;65.35
71173;DHT22;58875;51.996;4.504;2023-01-15T09:57:50;8.55;65.52
71173;DHT22;58875;51.996;4.504;2023-01-15T10:00:24;8.53;65.51
71173;DHT22;58875;51.996;4.504;2023-01-15T10:05:43;8.58;66.06
71173;DHT22;58875;51.996;4.504;2023-01-15T10:08:20;8.53;64.46
71173;DHT22;58875;51.996;4.504;2023-01-15T10:10:53;8.65;64.05
71173;DHT22;58875;51.996;4.504;2023-01-15T10:15:48;8.75;64.50
71173;DHT22;58875;51.996;4.504;2023-01-15T10:18:21;8.64;64.48
71173;DHT22;58875;51.996;4.504;2023-01-15T10:20:48;8.68;65.11
71173;DHT22;58875;51.996;4.504;2023-01-15T10:23:32;8.57;65.15
71173;DHT22;58875;51.996;4.504;2023-01-15T10:29:05;8.64;65.22
71173;DHT22;58875;51.996;4.504;2023-01-15T10:45:35;8.64;64.53
71173;DHT22;58875;51.996;4.504;2023-01-15T10:48:12;8.63;64.26
71173;DHT22;58875;51.996;4.504;2023-01-15T10:50:38;8.57;64.24
71173;DHT22;58875;51.996;4.504;2023-01-15T10:53:29;8.57;64.96
71173;DHT22;58875;51.996;4.504;2023-01-15T10:58:46;8.58;64.89
71173;DHT22;58875;51.996;4.504;2023-01-15T11:01:20;8.64;64.53
71173;DHT22;58875;51.996;4.504;2023-01-15T11:03:48;8.69;63.92
71173;DHT22;58875;51.996;4.504;2023-01-15T11:06:17;8.71;64.46
71173;DHT22;58875;51.996;4.504;2023-01-15T11:08:50;8.75;64.79
71173;DHT22;58875;51.996;4.504;2023-01-15T11:14:08;8.81;64.11
71173;DHT22;58875;51.996;4.504;2023-01-15T11:16:52;8.86;64.54
71173;DHT22;58875;51.996;4.504;2023-01-15T11:19:36;8.99;64.38
71173;DHT22;58875;51.996;4.504;2023-01-15T11:22:18;9.09;65.86
71173;DHT22;58875;51.996;4.504;2023-01-15T11:25:00;9.01;67.55
71173;DHT22;58875;51.996;4.504;2023-01-15T11:27:30;8.72;68.53
71173;DHT22;58875;51.996;4.504;2023-01-15T11:30:02;8.61;69.32
71173;DHT22;58875;51.996;4.504;2023-01-15T11:32:35;8.44;69.47
71173;DHT22;58875;51.996;4.504;2023-01-15T11:35:18;8.45;69.88
71173;DHT22;58875;51.996;4.504;2023-01-15T11:37:44;8.43;70.87
71173;DHT22;58875;51.996;4.504;2023-01-15T11:40:17;8.45;71.06
71173;DHT22;58875;51.996;4.504;2023-01-15T11:42:46;8.32;71.49
71173;DHT22;58875;51.996;4.504;2023-01-15T11:45:31;8.33;72.41
71173;DHT22;58875;51.996;4.504;2023-01-15T11:48:19;8.24;72.91
71173;DHT22;58875;51.996;4.504;2023-01-15T11:51:07;8.34;73.17
71173;DHT22;58875;51.996;4.504;2023-01-15T11:53:40;8.33;73.04
71173;DHT22;58875;51.996;4.504;2023-01-15T11:56:10;8.30;73.12
71173;DHT22;58875;51.996;4.504;2023-01-15T11:58:50;8.29;71.61
71173;DHT22;58875;51.996;4.504;2023-01-15T12:01:22;8.38;70.66
71173;DHT22;58875;51.996;4.504;2023-01-15T12:03:51;8.45;69.66
71173;DHT22;58875;51.996;4.504;2023-01-15T12:06:19;8.38;70.28
71173;DHT22;58875;51.996;4.504;2023-01-15T12:14:22;8.48;71.21
71173;DHT22;58875;51.996;4.504;2023-01-15T12:17:12;8.50;69.98
71173;DHT22;58875;51.996;4.504;2023-01-15T12:25:26;8.48;68.60
71173;DHT22;58875;51.996;4.504;2023-01-15T12:28:17;8.47;67.21
71173;DHT22;58875;51.996;4.504;2023-01-15T12:30:58;8.47;67.08
71173;DHT22;58875;51.996;4.504;2023-01-15T12:33:50;8.48;66.86
71173;DHT22;58875;51.996;4.504;2023-01-15T12:36:30;8.45;67.05
71173;DHT22;58875;51.996;4.504;2023-01-15T12:39:09;8.48;66.18
71173;DHT22;58875;51.996;4.504;2023-01-15T12:41:41;8.54;66.70
71173;DHT22;58875;51.996;4.504;2023-01-15T12:44:40;8.54;66.99
71173;DHT22;58875;51.996;4.504;2023-01-15T12:50:12;8.99;66.61
71173;DHT22;58875;51.996;4.504;2023-01-15T12:52:44;9.05;65.01
71173;DHT22;58875;51.996;4.504;2023-01-15T12:55:30;9.18;64.17
71173;DHT22;58875;51.996;4.504;2023-01-15T12:57:59;9.13;64.68
71173;DHT22;58875;51.996;4.504;2023-01-15T13:00:42;8.95;64.36
71173;DHT22;58875;51.996;4.504;2023-01-15T13:03:22;9.08;64.98
71173;DHT22;58875;51.996;4.504;2023-01-15T13:05:59;8.93;65.15
71173;DHT22;58875;51.996;4.504;2023-01-15T13:08:56;8.91;64.61
71173;DHT22;58875;51.996;4.504;2023-01-15T13:11:25;8.81;65.91
71173;DHT22;58875;51.996;4.504;2023-01-15T13:13:51;8.81;65.81
71173;DHT22;58875;51.996;4.504;2023-01-15T13:17:50;8.84;65.18
71173;DHT22;58875;51.996;4.504;2023-01-15T13:22:23;8.81;66.46
71173;DHT22;58875;51.996;4.504;2023-01-15T13:33:49;9.01;66.41
71173;DHT22;58875;51.996;4.504;2023-01-15T13:36:25;8.99;66.46
71173;DHT22;58875;51.996;4.504;2023-01-15T13:38:57;8.88;66.48
71173;DHT22;58875;51.996;4.504;2023-01-15T13:41:28;8.69;69.80
71173;DHT22;58875;51.996;4.504;2023-01-15T13:44:26;8.34;71.23
71173;DHT22;58875;51.996;4.504;2023-01-15T13:47:12;8.51;71.69
71173;DHT22;58875;51.996;4.504;2023-01-15T13:49:45;8.54;71.13
71173;DHT22;58875;51.996;4.504;2023-01-15T13:52:25;8.67;70.62
71173;DHT22;58875;51.996;4.504;2023-01-15T13:54:53;8.82;69.50
71173;DHT22;58875;51.996;4.504;2023-01-15T13:57:33;8.86;69.53
71173;DHT22;58875;51.996;4.504;2023-01-15T13:59:59;8.82;69.26
71173;DHT22;58875;51.996;4.504;2023-01-15T14:02:35;8.76;68.83
71173;DHT22;58875;51.996;4.504;2023-01-15T14:05:29;8.74;67.52
71173;DHT22;58875;51.996;4.504;2023-01-15T14:07:56;8.68;67.90
71173;DHT22;58875;51.996;4.504;2023-01-15T14:16:21;8.68;68.37
71173;DHT22;58875;51.996;4.504;2023-01-15T14:25:22;8.78;67.45
71173;DHT22;58875;51.996;4.504;2023-01-15T14:33:33;8.67;68.51
71173;DHT22;58875;51.996;4.504;2023-01-15T14:36:18;8.61;69.61
71173;DHT22;58875;51.996;4.504;2023-01-15T14:38:49;8.61;69.49
71173;DHT22;58875;51.996;4.504;2023-01-15T14:41:25;8.64;67.86
71173;DHT22;58875;51.996;4.504;2023-01-15T14:43:52;8.71;67.28
71173;DHT22;58875;51.996;4.504;2023-01-15T14:46:27;8.75;67.12
71173;DHT22;58875;51.996;4.504;2023-01-15T14:48:54;8.76;67.01
71173;DHT22;58875;51.996;4.504;2023-01-15T14:51:30;8.78;67.19
71173;DHT22;58875;51.996;4.504;2023-01-15T14:54:07;8.74;67.03
71173;DHT22;58875;51.996;4.504;2023-01-15T14:56:50;8.65;67.48
71173;DHT22;58875;51.996;4.504;2023-01-15T15:02:20;8.69;67.38
71173;DHT22;58875;51.996;4.504;2023-01-15T15:04:53;8.64;67.41
71173;DHT22;58875;51.996;4.504;2023-01-15T15:07:26;8.63;67.98
71173;DHT22;58875;51.996;4.504;2023-01-15T15:10:26;8.61;67.64
71173;DHT22;58875;51.996;4.504;2023-01-15T15:13:18;8.47;68.11
71173;DHT22;58875;51.996;4.504;2023-01-15T15:16:26;8.38;68.23
71173;DHT22;58875;51.996;4.504;2023-01-15T15:18:44;8.44;68.31
71173;DHT22;58875;51.996;4.504;2023-01-15T15:21:22;8.43;69.17
71173;DHT22;58875;51.996;4.504;2023-01-15T15:24:31;8.34;69.98
71173;DHT22;58875;51.996;4.504;2023-01-15T15:27:13;8.26;70.75
71173;DHT22;58875;51.996;4.504;2023-01-15T15:29:39;8.22;70.71
71173;DHT22;58875;51.996;4.504;2023-01-15T15:32:04;8.26;70.01
71173;DHT22;58875;51.996;4.504;2023-01-15T15:34:39;8.33;70.16
71173;DHT22;58875;51.996;4.504;2023-01-15T15:37:15;8.34;70.51
71173;DHT22;58875;51.996;4.504;2023-01-15T15:42:22;8.32;70.62
71173;DHT22;58875;51.996;4.504;2023-01-15T15:45:19;8.38;70.00
71173;DHT22;58875;51.996;4.504;2023-01-15T15:50:58;8.41;68.97
71173;DHT22;58875;51.996;4.504;2023-01-15T15:53:24;8.43;68.46
71173;DHT22;58875;51.996;4.504;2023-01-15T15:55:50;8.43;68.28
71173;DHT22;58875;51.996;4.504;2023-01-15T15:58:26;8.48;68.26
71173;DHT22;58875;51.996;4.504;2023-01-15T16:00:54;8.51;69.12
71173;DHT22;58875;51.996;4.504;2023-01-15T16:03:28;8.29;74.53
71173;DHT22;58875;51.996;4.504;2023-01-15T16:06:05;8.29;75.61
71173;DHT22;58875;51.996;4.504;2023-01-15T16:08:33;8.16;76.49
71173;DHT22;58875;51.996;4.504;2023-01-15T16:11:10;8.03;76.77
71173;DHT22;58875;51.996;4.504;2023-01-15T16:13:43;7.99;77.16
71173;DHT22;58875;51.996;4.504;2023-01-15T16:16:12;7.97;77.32
71173;DHT22;58875;51.996;4.504;2023-01-15T16:18:44;7.90;77.50
71173;DHT22;58875;51.996;4.504;2023-01-15T16:21:25;7.85;77.81
71173;DHT22;58875;51.996;4.504;2023-01-15T16:24:01;7.73;78.10
71173;DHT22;58875;51.996;4.504;2023-01-15T16:26:53;7.58;78.80
71173;DHT22;58875;51.996;4.504;2023-01-15T16:29:24;7.48;81.04
71173;DHT22;58875;51.996;4.504;2023-01-15T16:31:52;7.34;82.71
71173;DHT22;58875;51.996;4.504;2023-01-15T16:34:29;7.22;82.94
71173;DHT22;58875;51.996;4.504;2023-01-15T16:36:56;7.18;83.79
71173;DHT22;58875;51.996;4.504;2023-01-15T16:39:29;7.15;83.69
71173;DHT22;58875;51.996;4.504;2023-01-15T16:41:57;7.14;83.67
71173;DHT22;58875;51.996;4.504;2023-01-15T16:44:49;7.04;83.42
71173;DHT22;58875;51.996;4.504;2023-01-15T16:47:23;6.99;83.37
71173;DHT22;58875;51.996;4.504;2023-01-15T16:49:49;6.91;83.60
71173;DHT22;58875;51.996;4.504;2023-01-15T16:52:47;6.90;83.70
71173;DHT22;58875;51.996;4.504;2023-01-15T16:58:18;6.94;83.99
71173;DHT22;58875;51.996;4.504;2023-01-15T17:00:50;6.93;84.50
71173;DHT22;58875;51.996;4.504;2023-01-15T17:03:18;6.86;84.52
71173;DHT22;58875;51.996;4.504;2023-01-15T17:05:45;6.79;84.47
71173;DHT22;58875;51.996;4.504;2023-01-15T17:08:37;6.79;84.36
71173;DHT22;58875;51.996;4.504;2023-01-15T17:11:05;6.70;83.65
71173;DHT22;58875;51.996;4.504;2023-01-15T17:13:37;6.70;83.88
71173;DHT22;58875;51.996;4.504;2023-01-15T17:16:19;6.69;83.68
71173;DHT22;58875;51.996;4.504;2023-01-15T17:18:46;6.70;83.54
71173;DHT22;58875;51.996;4.504;2023-01-15T17:21:19;6.66;83.35
71173;DHT22;58875;51.996;4.504;2023-01-15T17:23:48;6.70;83.18
71173;DHT22;58875;51.996;4.504;2023-01-15T17:26:19;6.75;83.27
71173;DHT22;58875;51.996;4.504;2023-01-15T17:28:45;6.63;83.10
71173;DHT22;58875;51.996;4.504;2023-01-15T17:31:29;6.52;83.39
71173;DHT22;58875;51.996;4.504;2023-01-15T17:33:57;6.42;83.55
71173;DHT22;58875;51.996;4.504;2023-01-15T17:36:23;6.38;83.76
71173;DHT22;58875;51.996;4.504;2023-01-15T17:38:50;6.38;83.95
71173;DHT22;58875;51.996;4.504;2023-01-15T17:41:17;6.39;84.10
71173;DHT22;58875;51.996;4.504;2023-01-15T17:43:43;6.39;84.03
71173;DHT22;58875;51.996;4.504;2023-01-15T17:46:09;6.45;84.11
71173;DHT22;58875;51.996;4.504;2023-01-15T17:48:35;6.43;83.54
71173;DHT22;58875;51.996;4.504;2023-01-15T17:51:03;6.45;83.59
71173;DHT22;58875;51.996;4.504;2023-01-15T17:53:29;6.41;83.39
71173;DHT22;58875;51.996;4.504;2023-01-15T17:55:57;6.43;82.95
71173;DHT22;58875;51.996;4.504;2023-01-15T17:58:41;6.50;82.83
71173;DHT22;58875;51.996;4.504;2023-01-15T18:01:27;6.42;82.36